sensor_id;sensor_type;location;lat;lon;timestamp;temperature;humidity
44069;DHT22;29738;51.234;5.484;2022-08-24T00:02:18;20.80;99.90
44069;DHT22;29738;51.234;5.484;2022-08-24T00:04:44;20.70;99.90
44069;DHT22;29738;51.234;5.484;2022-08-24T00:07:10;20.60;99.90
44069;DHT22;29738;51.234;5.484;2022-08-24T00:09:36;20.60;99.90
44069;DHT22;29738;51.234;5.484;2022-08-24T00:12:03;20.50;99.90
44069;DHT22;29738;51.234;5.484;2022-08-24T00:14:29;20.60;99.90
44069;DHT22;29738;51.234;5.484;2022-08-24T00:16:56;20.50;99.90
44069;DHT22;29738;51.234;5.484;2022-08-24T00:19:25;20.40;99.90
44069;DHT22;29738;51.234;5.484;2022-08-24T00:21:51;20.40;99.90
44069;DHT22;29738;51.234;5.484;2022-08-24T00:24:18;20.40;99.90
44069;DHT22;29738;51.234;5.484;2022-08-24T00:26:44;20.50;99.90
44069;DHT22;29738;51.234;5.484;2022-08-24T00:29:12;20.40;99.90
44069;DHT22;29738;51.234;5.484;2022-08-24T00:31:38;20.40;99.90
44069;DHT22;29738;51.234;5.484;2022-08-24T00:34:04;20.40;99.90
44069;DHT22;29738;51.234;5.484;2022-08-24T00:36:31;20.30;99.90
44069;DHT22;29738;51.234;5.484;2022-08-24T00:38:57;20.30;99.90
44069;DHT22;29738;51.234;5.484;2022-08-24T00:41:23;20.10;99.90
44069;DHT22;29738;51.234;5.484;2022-08-24T00:43:54;20.10;99.90
44069;DHT22;29738;51.234;5.484;2022-08-24T00:46:26;20.10;99.90
44069;DHT22;29738;51.234;5.484;2022-08-24T00:49:00;19.80;99.90
44069;DHT22;29738;51.234;5.484;2022-08-24T00:51:35;19.80;99.90
44069;DHT22;29738;51.234;5.484;2022-08-24T00:54:11;19.50;99.90
44069;DHT22;29738;51.234;5.484;2022-08-24T00:56:41;19.60;99.90
44069;DHT22;29738;51.234;5.484;2022-08-24T00:59:12;19.70;99.90
44069;DHT22;29738;51.234;5.484;2022-08-24T01:01:40;19.50;99.90
44069;DHT22;29738;51.234;5.484;2022-08-24T01:04:12;19.60;99.90
44069;DHT22;29738;51.234;5.484;2022-08-24T01:06:40;19.80;99.90
44069;DHT22;29738;51.234;5.484;2022-08-24T01:09:06;19.90;99.90
44069;DHT22;29738;51.234;5.484;2022-08-24T01:11:33;20.10;99.90
44069;DHT22;29738;51.234;5.484;2022-08-24T01:14:01;20.00;99.90
44069;DHT22;29738;51.234;5.484;2022-08-24T01:16:28;20.00;99.90
44069;DHT22;29738;51.234;5.484;2022-08-24T01:19:44;20.00;99.90
44069;DHT22;29738;51.234;5.484;2022-08-24T01:24:48;19.90;99.90
44069;DHT22;29738;51.234;5.484;2022-08-24T01:27:14;19.70;99.90
44069;DHT22;29738;51.234;5.484;2022-08-24T01:29:41;19.70;99.90
44069;DHT22;29738;51.234;5.484;2022-08-24T01:32:08;19.80;99.90
44069;DHT22;29738;51.234;5.484;2022-08-24T01:34:35;19.80;99.90
44069;DHT22;29738;51.234;5.484;2022-08-24T01:37:01;19.60;99.90
44069;DHT22;29738;51.234;5.484;2022-08-24T01:39:33;19.60;99.90
44069;DHT22;29738;51.234;5.484;2022-08-24T01:42:01;19.70;99.90
44069;DHT22;29738;51.234;5.484;2022-08-24T01:44:30;19.70;99.90
44069;DHT22;29738;51.234;5.484;2022-08-24T01:47:00;19.60;99.90
44069;DHT22;29738;51.234;5.484;2022-08-24T01:49:30;19.50;99.90
44069;DHT22;29738;51.234;5.484;2022-08-24T01:51:57;19.50;99.90
44069;DHT22;29738;51.234;5.484;2022-08-24T01:54:24;19.40;99.90
44069;DHT22;29738;51.234;5.484;2022-08-24T01:56:50;19.30;99.90
44069;DHT22;29738;51.234;5.484;2022-08-24T01:59:16;19.30;99.90
44069;DHT22;29738;51.234;5.484;2022-08-24T02:01:47;19.30;99.90
44069;DHT22;29738;51.234;5.484;2022-08-24T02:04:14;19.40;99.90
44069;DHT22;29738;51.234;5.484;2022-08-24T02:06:40;19.30;99.90
44069;DHT22;29738;51.234;5.484;2022-08-24T02:09:06;19.30;99.90
44069;DHT22;29738;51.234;5.484;2022-08-24T02:11:32;19.10;99.90
44069;DHT22;29738;51.234;5.484;2022-08-24T02:13:58;19.20;99.90
44069;DHT22;29738;51.234;5.484;2022-08-24T02:16:25;19.30;99.90
44069;DHT22;29738;51.234;5.484;2022-08-24T02:18:52;19.30;99.90
44069;DHT22;29738;51.234;5.484;2022-08-24T02:21:18;19.30;99.90
44069;DHT22;29738;51.234;5.484;2022-08-24T02:23:44;19.20;99.90
44069;DHT22;29738;51.234;5.484;2022-08-24T02:26:10;19.10;99.90
44069;DHT22;29738;51.234;5.484;2022-08-24T02:28:37;18.90;99.90
44069;DHT22;29738;51.234;5.484;2022-08-24T02:31:04;18.90;99.90
44069;DHT22;29738;51.234;5.484;2022-08-24T02:33:32;18.80;99.90
44069;DHT22;29738;51.234;5.484;2022-08-24T02:35:58;18.90;99.90
44069;DHT22;29738;51.234;5.484;2022-08-24T02:38:24;18.90;99.90
44069;DHT22;29738;51.234;5.484;2022-08-24T02:40:50;18.90;99.90
44069;DHT22;29738;51.234;5.484;2022-08-24T02:43:16;18.90;99.90
44069;DHT22;29738;51.234;5.484;2022-08-24T02:45:44;18.90;99.90
44069;DHT22;29738;51.234;5.484;2022-08-24T02:48:11;18.80;99.90
44069;DHT22;29738;51.234;5.484;2022-08-24T02:50:40;18.80;99.90
44069;DHT22;29738;51.234;5.484;2022-08-24T02:53:07;18.80;99.90
44069;DHT22;29738;51.234;5.484;2022-08-24T02:55:33;18.80;99.90
44069;DHT22;29738;51.234;5.484;2022-08-24T02:57:59;18.80;99.90
44069;DHT22;29738;51.234;5.484;2022-08-24T03:00:25;18.70;99.90
44069;DHT22;29738;51.234;5.484;2022-08-24T03:02:53;18.70;99.90
44069;DHT22;29738;51.234;5.484;2022-08-24T03:05:19;18.70;99.90
44069;DHT22;29738;51.234;5.484;2022-08-24T03:07:46;18.70;99.90
44069;DHT22;29738;51.234;5.484;2022-08-24T03:10:12;18.80;99.90
44069;DHT22;29738;51.234;5.484;2022-08-24T03:12:38;18.80;99.90
44069;DHT22;29738;51.234;5.484;2022-08-24T03:15:06;18.60;99.90
44069;DHT22;29738;51.234;5.484;2022-08-24T03:17:32;18.70;99.90
44069;DHT22;29738;51.234;5.484;2022-08-24T03:19:59;18.70;99.90
44069;DHT22;29738;51.234;5.484;2022-08-24T03:22:26;18.70;99.90
44069;DHT22;29738;51.234;5.484;2022-08-24T03:24:52;18.70;99.90
44069;DHT22;29738;51.234;5.484;2022-08-24T03:27:18;18.60;99.90
44069;DHT22;29738;51.234;5.484;2022-08-24T03:29:44;18.50;99.90
44069;DHT22;29738;51.234;5.484;2022-08-24T03:32:09;18.50;99.90
44069;DHT22;29738;51.234;5.484;2022-08-24T03:34:35;18.50;99.90
44069;DHT22;29738;51.234;5.484;2022-08-24T03:37:02;18.50;99.90
44069;DHT22;29738;51.234;5.484;2022-08-24T03:39:28;18.50;99.90
44069;DHT22;29738;51.234;5.484;2022-08-24T03:41:54;18.50;99.90
44069;DHT22;29738;51.234;5.484;2022-08-24T03:44:20;18.50;99.90
44069;DHT22;29738;51.234;5.484;2022-08-24T03:46:46;18.50;99.90
44069;DHT22;29738;51.234;5.484;2022-08-24T03:49:12;18.50;99.90
44069;DHT22;29738;51.234;5.484;2022-08-24T03:51:39;18.40;99.90
44069;DHT22;29738;51.234;5.484;2022-08-24T03:54:07;18.40;99.90
44069;DHT22;29738;51.234;5.484;2022-08-24T03:56:34;18.50;99.90
44069;DHT22;29738;51.234;5.484;2022-08-24T03:59:00;18.40;99.90
44069;DHT22;29738;51.234;5.484;2022-08-24T04:01:25;18.20;99.90
44069;DHT22;29738;51.234;5.484;2022-08-24T04:03:52;18.20;99.90
44069;DHT22;29738;51.234;5.484;2022-08-24T04:06:20;18.30;99.90
44069;DHT22;29738;51.234;5.484;2022-08-24T04:08:47;18.10;99.90
44069;DHT22;29738;51.234;5.484;2022-08-24T04:11:15;18.00;99.90
44069;DHT22;29738;51.234;5.484;2022-08-24T04:13:42;18.00;99.90
44069;DHT22;29738;51.234;5.484;2022-08-24T04:16:10;18.00;99.90
44069;DHT22;29738;51.234;5.484;2022-08-24T04:18:37;18.00;99.90
44069;DHT22;29738;51.234;5.484;2022-08-24T04:21:04;18.00;99.90
44069;DHT22;29738;51.234;5.484;2022-08-24T04:23:31;18.00;99.90
44069;DHT22;29738;51.234;5.484;2022-08-24T04:26:02;18.10;99.90
44069;DHT22;29738;51.234;5.484;2022-08-24T04:28:29;18.10;99.90
44069;DHT22;29738;51.234;5.484;2022-08-24T04:30:55;18.10;99.90
44069;DHT22;29738;51.234;5.484;2022-08-24T04:33:22;18.10;99.90
44069;DHT22;29738;51.234;5.484;2022-08-24T04:35:48;18.30;99.90
44069;DHT22;29738;51.234;5.484;2022-08-24T04:38:16;18.30;99.90
44069;DHT22;29738;51.234;5.484;2022-08-24T04:40:44;18.50;99.90
44069;DHT22;29738;51.234;5.484;2022-08-24T04:43:10;18.20;99.90
44069;DHT22;29738;51.234;5.484;2022-08-24T04:45:41;18.00;99.90
44069;DHT22;29738;51.234;5.484;2022-08-24T04:48:09;17.90;99.90
44069;DHT22;29738;51.234;5.484;2022-08-24T04:50:37;17.80;99.90
44069;DHT22;29738;51.234;5.484;2022-08-24T04:53:04;17.80;99.90
44069;DHT22;29738;51.234;5.484;2022-08-24T04:55:31;17.80;99.90
44069;DHT22;29738;51.234;5.484;2022-08-24T04:57:56;17.60;99.90
44069;DHT22;29738;51.234;5.484;2022-08-24T05:00:22;17.80;99.90
44069;DHT22;29738;51.234;5.484;2022-08-24T05:02:48;17.80;99.90
44069;DHT22;29738;51.234;5.484;2022-08-24T05:05:14;17.90;99.90
44069;DHT22;29738;51.234;5.484;2022-08-24T05:07:41;18.00;99.90
44069;DHT22;29738;51.234;5.484;2022-08-24T05:10:09;18.00;99.90
44069;DHT22;29738;51.234;5.484;2022-08-24T05:12:36;18.10;99.90
44069;DHT22;29738;51.234;5.484;2022-08-24T05:15:03;18.10;99.90
44069;DHT22;29738;51.234;5.484;2022-08-24T05:17:29;18.20;99.90
44069;DHT22;29738;51.234;5.484;2022-08-24T05:19:56;18.30;99.90
44069;DHT22;29738;51.234;5.484;2022-08-24T05:22:23;18.40;99.90
44069;DHT22;29738;51.234;5.484;2022-08-24T05:24:49;18.50;99.90
44069;DHT22;29738;51.234;5.484;2022-08-24T05:27:16;18.50;99.90
44069;DHT22;29738;51.234;5.484;2022-08-24T05:29:44;18.60;99.90
44069;DHT22;29738;51.234;5.484;2022-08-24T05:32:10;18.60;99.90
44069;DHT22;29738;51.234;5.484;2022-08-24T05:34:36;18.90;99.90
44069;DHT22;29738;51.234;5.484;2022-08-24T05:37:03;18.90;99.90
44069;DHT22;29738;51.234;5.484;2022-08-24T05:39:29;19.00;99.90
44069;DHT22;29738;51.234;5.484;2022-08-24T05:41:56;19.00;99.90
44069;DHT22;29738;51.234;5.484;2022-08-24T05:44:24;19.00;99.90
44069;DHT22;29738;51.234;5.484;2022-08-24T05:46:50;19.20;99.90
44069;DHT22;29738;51.234;5.484;2022-08-24T05:49:17;19.40;99.90
44069;DHT22;29738;51.234;5.484;2022-08-24T05:51:43;19.60;99.90
44069;DHT22;29738;51.234;5.484;2022-08-24T05:54:10;19.90;99.90
44069;DHT22;29738;51.234;5.484;2022-08-24T05:56:37;19.90;99.90
44069;DHT22;29738;51.234;5.484;2022-08-24T05:59:03;19.80;99.90
44069;DHT22;29738;51.234;5.484;2022-08-24T06:01:29;19.70;99.90
44069;DHT22;29738;51.234;5.484;2022-08-24T06:03:56;19.80;99.90
44069;DHT22;29738;51.234;5.484;2022-08-24T06:06:23;20.00;99.90
44069;DHT22;29738;51.234;5.484;2022-08-24T06:08:51;20.20;99.90
44069;DHT22;29738;51.234;5.484;2022-08-24T06:11:24;20.30;99.90
44069;DHT22;29738;51.234;5.484;2022-08-24T06:13:55;20.40;99.90
44069;DHT22;29738;51.234;5.484;2022-08-24T06:16:23;20.20;99.90
44069;DHT22;29738;51.234;5.484;2022-08-24T06:18:50;20.20;99.90
44069;DHT22;29738;51.234;5.484;2022-08-24T06:21:20;20.10;99.90
44069;DHT22;29738;51.234;5.484;2022-08-24T06:23:46;20.10;99.90
44069;DHT22;29738;51.234;5.484;2022-08-24T06:26:12;20.10;99.90
44069;DHT22;29738;51.234;5.484;2022-08-24T06:28:57;20.20;99.90
44069;DHT22;29738;51.234;5.484;2022-08-24T06:31:26;20.30;99.90
44069;DHT22;29738;51.234;5.484;2022-08-24T06:33:53;20.40;99.90
44069;DHT22;29738;51.234;5.484;2022-08-24T06:36:19;20.40;99.90
44069;DHT22;29738;51.234;5.484;2022-08-24T06:38:46;20.50;99.90
44069;DHT22;29738;51.234;5.484;2022-08-24T06:41:12;20.40;99.90
44069;DHT22;29738;51.234;5.484;2022-08-24T06:43:38;20.40;99.90
44069;DHT22;29738;51.234;5.484;2022-08-24T06:46:05;20.40;99.90
44069;DHT22;29738;51.234;5.484;2022-08-24T06:48:31;20.40;99.90
44069;DHT22;29738;51.234;5.484;2022-08-24T06:50:57;20.50;99.90
44069;DHT22;29738;51.234;5.484;2022-08-24T06:53:24;20.60;99.90
44069;DHT22;29738;51.234;5.484;2022-08-24T06:55:51;20.60;99.90
44069;DHT22;29738;51.234;5.484;2022-08-24T06:58:18;20.70;99.90
44069;DHT22;29738;51.234;5.484;2022-08-24T07:00:44;20.70;99.90
44069;DHT22;29738;51.234;5.484;2022-08-24T07:03:10;20.70;99.90
44069;DHT22;29738;51.234;5.484;2022-08-24T07:05:36;20.90;99.90
44069;DHT22;29738;51.234;5.484;2022-08-24T07:08:03;21.10;99.90
44069;DHT22;29738;51.234;5.484;2022-08-24T07:10:29;21.30;99.90
44069;DHT22;29738;51.234;5.484;2022-08-24T07:12:55;21.40;99.90
44069;DHT22;29738;51.234;5.484;2022-08-24T07:15:22;21.90;99.90
44069;DHT22;29738;51.234;5.484;2022-08-24T07:17:48;22.30;99.90
44069;DHT22;29738;51.234;5.484;2022-08-24T07:20:14;22.60;99.90
44069;DHT22;29738;51.234;5.484;2022-08-24T07:22:42;22.90;99.90
44069;DHT22;29738;51.234;5.484;2022-08-24T07:25:10;23.00;99.90
44069;DHT22;29738;51.234;5.484;2022-08-24T07:27:36;23.10;99.90
44069;DHT22;29738;51.234;5.484;2022-08-24T07:30:03;23.20;99.90
44069;DHT22;29738;51.234;5.484;2022-08-24T07:32:29;23.40;99.90
44069;DHT22;29738;51.234;5.484;2022-08-24T07:34:54;23.30;99.90
44069;DHT22;29738;51.234;5.484;2022-08-24T07:37:20;23.30;99.90
44069;DHT22;29738;51.234;5.484;2022-08-24T07:39:46;23.50;99.90
44069;DHT22;29738;51.234;5.484;2022-08-24T07:42:12;23.40;99.90
44069;DHT22;29738;51.234;5.484;2022-08-24T07:44:38;23.50;99.90
44069;DHT22;29738;51.234;5.484;2022-08-24T07:47:04;23.50;99.90
44069;DHT22;29738;51.234;5.484;2022-08-24T07:49:30;23.20;99.90
44069;DHT22;29738;51.234;5.484;2022-08-24T07:51:56;23.10;99.90
44069;DHT22;29738;51.234;5.484;2022-08-24T07:54:22;23.40;99.90
44069;DHT22;29738;51.234;5.484;2022-08-24T07:56:48;23.80;99.90
44069;DHT22;29738;51.234;5.484;2022-08-24T07:59:15;24.10;99.90
44069;DHT22;29738;51.234;5.484;2022-08-24T08:01:41;24.30;99.90
44069;DHT22;29738;51.234;5.484;2022-08-24T08:04:08;24.30;99.90
44069;DHT22;29738;51.234;5.484;2022-08-24T08:06:34;24.20;99.90
44069;DHT22;29738;51.234;5.484;2022-08-24T08:09:00;24.40;99.90
44069;DHT22;29738;51.234;5.484;2022-08-24T08:11:27;24.40;99.90
44069;DHT22;29738;51.234;5.484;2022-08-24T08:13:53;24.70;99.90
44069;DHT22;29738;51.234;5.484;2022-08-24T08:16:18;25.20;99.90
44069;DHT22;29738;51.234;5.484;2022-08-24T08:18:46;25.30;99.90
44069;DHT22;29738;51.234;5.484;2022-08-24T08:21:12;25.20;99.90
44069;DHT22;29738;51.234;5.484;2022-08-24T08:23:56;25.30;99.90
44069;DHT22;29738;51.234;5.484;2022-08-24T08:26:47;25.80;99.90
44069;DHT22;29738;51.234;5.484;2022-08-24T08:29:17;26.10;99.90
44069;DHT22;29738;51.234;5.484;2022-08-24T08:31:44;26.10;99.90
44069;DHT22;29738;51.234;5.484;2022-08-24T08:34:10;25.90;99.90
44069;DHT22;29738;51.234;5.484;2022-08-24T08:36:39;26.00;99.90
44069;DHT22;29738;51.234;5.484;2022-08-24T08:39:08;26.10;99.90
44069;DHT22;29738;51.234;5.484;2022-08-24T08:44:18;26.20;99.90
44069;DHT22;29738;51.234;5.484;2022-08-24T08:47:26;26.00;99.90
44069;DHT22;29738;51.234;5.484;2022-08-24T08:50:17;26.20;99.90
44069;DHT22;29738;51.234;5.484;2022-08-24T08:56:05;26.70;99.90
44069;DHT22;29738;51.234;5.484;2022-08-24T09:01:40;26.90;99.90
44069;DHT22;29738;51.234;5.484;2022-08-24T09:13:13;27.60;99.90
44069;DHT22;29738;51.234;5.484;2022-08-24T09:26:31;26.90;99.90
44069;DHT22;29738;51.234;5.484;2022-08-24T09:29:15;26.90;99.90
44069;DHT22;29738;51.234;5.484;2022-08-24T09:35:01;27.10;99.90
44069;DHT22;29738;51.234;5.484;2022-08-24T09:51:39;29.20;99.90
44069;DHT22;29738;51.234;5.484;2022-08-24T09:57:24;28.50;99.90
44069;DHT22;29738;51.234;5.484;2022-08-24T10:00:13;28.40;99.90
44069;DHT22;29738;51.234;5.484;2022-08-24T10:02:58;28.60;99.90
44069;DHT22;29738;51.234;5.484;2022-08-24T10:11:26;29.50;99.90
44069;DHT22;29738;51.234;5.484;2022-08-24T10:14:11;29.20;99.90
44069;DHT22;29738;51.234;5.484;2022-08-24T10:20:05;30.20;99.90
44069;DHT22;29738;51.234;5.484;2022-08-24T10:23:03;30.20;99.90
44069;DHT22;29738;51.234;5.484;2022-08-24T10:25:44;30.50;99.90
44069;DHT22;29738;51.234;5.484;2022-08-24T10:31:17;30.90;99.90
44069;DHT22;29738;51.234;5.484;2022-08-24T10:51:11;29.60;99.90
44069;DHT22;29738;51.234;5.484;2022-08-24T10:53:50;30.10;99.90
44069;DHT22;29738;51.234;5.484;2022-08-24T10:56:18;30.60;99.90
44069;DHT22;29738;51.234;5.484;2022-08-24T10:58:50;30.30;99.90
44069;DHT22;29738;51.234;5.484;2022-08-24T11:01:29;30.30;99.90
44069;DHT22;29738;51.234;5.484;2022-08-24T11:04:11;30.30;99.90
44069;DHT22;29738;51.234;5.484;2022-08-24T11:06:44;30.40;99.90
44069;DHT22;29738;51.234;5.484;2022-08-24T11:09:54;30.60;99.90
44069;DHT22;29738;51.234;5.484;2022-08-24T11:12:31;30.80;99.40
44069;DHT22;29738;51.234;5.484;2022-08-24T11:15:03;30.60;99.90
44069;DHT22;29738;51.234;5.484;2022-08-24T11:17:31;30.50;99.90
44069;DHT22;29738;51.234;5.484;2022-08-24T11:19:59;30.10;99.90
44069;DHT22;29738;51.234;5.484;2022-08-24T11:22:38;29.90;99.90
44069;DHT22;29738;51.234;5.484;2022-08-24T11:25:30;29.70;99.90
44069;DHT22;29738;51.234;5.484;2022-08-24T11:28:19;29.70;99.90
44069;DHT22;29738;51.234;5.484;2022-08-24T11:30:45;30.10;99.90
44069;DHT22;29738;51.234;5.484;2022-08-24T11:33:33;30.50;99.90
44069;DHT22;29738;51.234;5.484;2022-08-24T11:36:01;30.60;99.90
44069;DHT22;29738;51.234;5.484;2022-08-24T11:38:32;30.20;99.90
44069;DHT22;29738;51.234;5.484;2022-08-24T11:41:07;30.60;99.90
44069;DHT22;29738;51.234;5.484;2022-08-24T11:43:57;30.80;98.30
44069;DHT22;29738;51.234;5.484;2022-08-24T11:49:34;31.00;97.80
44069;DHT22;29738;51.234;5.484;2022-08-24T11:52:21;31.20;97.70
44069;DHT22;29738;51.234;5.484;2022-08-24T11:54:59;30.80;98.70
44069;DHT22;29738;51.234;5.484;2022-08-24T11:57:37;31.00;99.50
44069;DHT22;29738;51.234;5.484;2022-08-24T12:00:12;30.50;97.50
44069;DHT22;29738;51.234;5.484;2022-08-24T12:05:49;30.90;97.40
44069;DHT22;29738;51.234;5.484;2022-08-24T12:19:27;31.00;94.90
44069;DHT22;29738;51.234;5.484;2022-08-24T12:21:59;30.80;95.00
44069;DHT22;29738;51.234;5.484;2022-08-24T12:27:00;31.40;96.10
44069;DHT22;29738;51.234;5.484;2022-08-24T12:29:38;31.50;95.00
44069;DHT22;29738;51.234;5.484;2022-08-24T12:32:11;31.90;93.90
44069;DHT22;29738;51.234;5.484;2022-08-24T12:34:52;31.90;94.10
44069;DHT22;29738;51.234;5.484;2022-08-24T12:37:42;31.40;94.80
44069;DHT22;29738;51.234;5.484;2022-08-24T12:40:22;30.90;95.10
44069;DHT22;29738;51.234;5.484;2022-08-24T12:45:22;31.30;93.70
44069;DHT22;29738;51.234;5.484;2022-08-24T12:47:59;31.50;93.30
44069;DHT22;29738;51.234;5.484;2022-08-24T12:59:24;31.20;94.70
44069;DHT22;29738;51.234;5.484;2022-08-24T13:01:59;31.80;93.50
44069;DHT22;29738;51.234;5.484;2022-08-24T13:04:36;32.30;92.90
44069;DHT22;29738;51.234;5.484;2022-08-24T13:07:12;32.50;92.30
44069;DHT22;29738;51.234;5.484;2022-08-24T13:17:51;32.80;91.80
44069;DHT22;29738;51.234;5.484;2022-08-24T13:20:25;32.80;91.30
44069;DHT22;29738;51.234;5.484;2022-08-24T13:31:20;31.50;93.40
44069;DHT22;29738;51.234;5.484;2022-08-24T13:33:58;31.50;93.90
44069;DHT22;29738;51.234;5.484;2022-08-24T13:39:47;31.30;92.20
44069;DHT22;29738;51.234;5.484;2022-08-24T13:48:11;32.30;91.40
44069;DHT22;29738;51.234;5.484;2022-08-24T13:55:50;32.40;90.80
44069;DHT22;29738;51.234;5.484;2022-08-24T13:58:44;32.20;92.00
44069;DHT22;29738;51.234;5.484;2022-08-24T14:15:22;32.80;90.40
44069;DHT22;29738;51.234;5.484;2022-08-24T14:25:31;33.10;89.80
44069;DHT22;29738;51.234;5.484;2022-08-24T14:49:33;31.80;90.30
44069;DHT22;29738;51.234;5.484;2022-08-24T14:52:14;31.80;91.70
44069;DHT22;29738;51.234;5.484;2022-08-24T15:03:22;32.10;90.80
44069;DHT22;29738;51.234;5.484;2022-08-24T15:08:50;31.70;91.30
44069;DHT22;29738;51.234;5.484;2022-08-24T15:11:21;31.70;90.20
44069;DHT22;29738;51.234;5.484;2022-08-24T15:16:44;32.10;91.40
44069;DHT22;29738;51.234;5.484;2022-08-24T15:22:45;32.50;91.40
44069;DHT22;29738;51.234;5.484;2022-08-24T15:27:57;32.80;90.30
44069;DHT22;29738;51.234;5.484;2022-08-24T15:33:11;32.00;89.70
44069;DHT22;29738;51.234;5.484;2022-08-24T15:35:44;31.90;90.20
44069;DHT22;29738;51.234;5.484;2022-08-24T15:38:20;32.10;88.50
44069;DHT22;29738;51.234;5.484;2022-08-24T15:40:48;32.50;90.30
44069;DHT22;29738;51.234;5.484;2022-08-24T15:43:14;33.00;90.20
44069;DHT22;29738;51.234;5.484;2022-08-24T15:45:50;32.80;87.70
44069;DHT22;29738;51.234;5.484;2022-08-24T15:48:18;32.60;88.10
44069;DHT22;29738;51.234;5.484;2022-08-24T15:50:47;32.60;88.10
44069;DHT22;29738;51.234;5.484;2022-08-24T15:53:40;32.60;90.00
44069;DHT22;29738;51.234;5.484;2022-08-24T15:58:51;32.60;88.40
44069;DHT22;29738;51.234;5.484;2022-08-24T16:01:18;32.70;88.10
44069;DHT22;29738;51.234;5.484;2022-08-24T16:04:10;33.00;86.80
44069;DHT22;29738;51.234;5.484;2022-08-24T16:06:42;32.80;87.30
44069;DHT22;29738;51.234;5.484;2022-08-24T16:14:41;33.10;86.60
44069;DHT22;29738;51.234;5.484;2022-08-24T16:17:40;33.10;88.30
44069;DHT22;29738;51.234;5.484;2022-08-24T16:20:35;33.00;88.20
44069;DHT22;29738;51.234;5.484;2022-08-24T16:23:05;32.90;88.90
44069;DHT22;29738;51.234;5.484;2022-08-24T16:25:37;32.90;87.40
44069;DHT22;29738;51.234;5.484;2022-08-24T16:28:32;33.10;86.40
44069;DHT22;29738;51.234;5.484;2022-08-24T16:30:59;33.30;89.70
44069;DHT22;29738;51.234;5.484;2022-08-24T16:36:02;32.60;89.60
44069;DHT22;29738;51.234;5.484;2022-08-24T16:38:29;32.40;87.10
44069;DHT22;29738;51.234;5.484;2022-08-24T16:41:04;32.50;90.20
44069;DHT22;29738;51.234;5.484;2022-08-24T16:43:31;32.20;90.50
44069;DHT22;29738;51.234;5.484;2022-08-24T16:45:59;32.00;90.40
44069;DHT22;29738;51.234;5.484;2022-08-24T16:48:25;31.80;90.80
44069;DHT22;29738;51.234;5.484;2022-08-24T16:50:52;31.80;91.40
44069;DHT22;29738;51.234;5.484;2022-08-24T16:53:18;31.60;89.80
44069;DHT22;29738;51.234;5.484;2022-08-24T16:55:44;31.80;91.40
44069;DHT22;29738;51.234;5.484;2022-08-24T16:58:09;31.90;91.00
44069;DHT22;29738;51.234;5.484;2022-08-24T17:00:35;31.90;91.20
44069;DHT22;29738;51.234;5.484;2022-08-24T17:03:02;32.20;91.50
44069;DHT22;29738;51.234;5.484;2022-08-24T17:05:27;32.10;90.70
44069;DHT22;29738;51.234;5.484;2022-08-24T17:07:54;32.10;90.30
44069;DHT22;29738;51.234;5.484;2022-08-24T17:10:20;32.20;90.70
44069;DHT22;29738;51.234;5.484;2022-08-24T17:12:48;32.20;91.10
44069;DHT22;29738;51.234;5.484;2022-08-24T17:15:14;32.10;91.30
44069;DHT22;29738;51.234;5.484;2022-08-24T17:17:52;32.00;90.90
44069;DHT22;29738;51.234;5.484;2022-08-24T17:20:18;31.90;91.80
44069;DHT22;29738;51.234;5.484;2022-08-24T17:22:45;32.00;92.40
44069;DHT22;29738;51.234;5.484;2022-08-24T17:25:11;31.60;92.60
44069;DHT22;29738;51.234;5.484;2022-08-24T17:27:37;31.50;93.40
44069;DHT22;29738;51.234;5.484;2022-08-24T17:30:05;31.50;94.40
44069;DHT22;29738;51.234;5.484;2022-08-24T17:32:31;31.30;97.40
44069;DHT22;29738;51.234;5.484;2022-08-24T17:34:57;30.60;96.30
44069;DHT22;29738;51.234;5.484;2022-08-24T17:37:23;30.10;99.90
44069;DHT22;29738;51.234;5.484;2022-08-24T17:39:55;29.90;99.90
44069;DHT22;29738;51.234;5.484;2022-08-24T17:42:21;29.70;99.90
44069;DHT22;29738;51.234;5.484;2022-08-24T17:44:47;29.40;99.90
44069;DHT22;29738;51.234;5.484;2022-08-24T17:47:13;29.40;99.90
44069;DHT22;29738;51.234;5.484;2022-08-24T17:49:39;29.20;99.90
44069;DHT22;29738;51.234;5.484;2022-08-24T17:52:06;29.00;99.90
44069;DHT22;29738;51.234;5.484;2022-08-24T17:54:32;28.80;99.90
44069;DHT22;29738;51.234;5.484;2022-08-24T17:56:58;28.80;99.90
44069;DHT22;29738;51.234;5.484;2022-08-24T17:59:28;28.80;99.90
44069;DHT22;29738;51.234;5.484;2022-08-24T18:01:58;28.70;99.90
44069;DHT22;29738;51.234;5.484;2022-08-24T18:04:26;28.40;99.90
44069;DHT22;29738;51.234;5.484;2022-08-24T18:06:53;28.10;99.90
44069;DHT22;29738;51.234;5.484;2022-08-24T18:09:32;28.10;99.90
44069;DHT22;29738;51.234;5.484;2022-08-24T18:11:59;28.00;99.90
44069;DHT22;29738;51.234;5.484;2022-08-24T18:14:28;27.90;99.90
44069;DHT22;29738;51.234;5.484;2022-08-24T18:16:56;27.80;99.90
44069;DHT22;29738;51.234;5.484;2022-08-24T18:19:23;27.70;99.90
44069;DHT22;29738;51.234;5.484;2022-08-24T18:21:52;27.50;99.90
44069;DHT22;29738;51.234;5.484;2022-08-24T18:24:18;27.50;99.90
44069;DHT22;29738;51.234;5.484;2022-08-24T18:26:45;27.40;99.90
44069;DHT22;29738;51.234;5.484;2022-08-24T18:29:16;27.40;99.90
44069;DHT22;29738;51.234;5.484;2022-08-24T18:31:42;27.50;99.90
44069;DHT22;29738;51.234;5.484;2022-08-24T18:34:11;27.40;99.90
44069;DHT22;29738;51.234;5.484;2022-08-24T18:36:39;27.20;99.90
44069;DHT22;29738;51.234;5.484;2022-08-24T18:39:05;27.00;99.90
44069;DHT22;29738;51.234;5.484;2022-08-24T18:41:34;27.00;99.90
44069;DHT22;29738;51.234;5.484;2022-08-24T18:44:02;26.90;99.90
44069;DHT22;29738;51.234;5.484;2022-08-24T18:46:29;26.50;99.90
44069;DHT22;29738;51.234;5.484;2022-08-24T18:48:59;26.40;99.90
44069;DHT22;29738;51.234;5.484;2022-08-24T18:51:25;26.40;99.90
44069;DHT22;29738;51.234;5.484;2022-08-24T18:54:01;26.40;99.90
44069;DHT22;29738;51.234;5.484;2022-08-24T18:56:27;26.30;99.90
44069;DHT22;29738;51.234;5.484;2022-08-24T18:58:53;26.40;99.90
44069;DHT22;29738;51.234;5.484;2022-08-24T19:01:21;26.30;99.90
44069;DHT22;29738;51.234;5.484;2022-08-24T19:03:47;26.30;99.90
44069;DHT22;29738;51.234;5.484;2022-08-24T19:06:14;26.20;99.90
44069;DHT22;29738;51.234;5.484;2022-08-24T19:08:39;26.00;99.90
44069;DHT22;29738;51.234;5.484;2022-08-24T19:11:06;25.70;99.90
44069;DHT22;29738;51.234;5.484;2022-08-24T19:13:32;25.50;99.90
44069;DHT22;29738;51.234;5.484;2022-08-24T19:15:58;25.60;99.90
44069;DHT22;29738;51.234;5.484;2022-08-24T19:18:24;25.60;99.90
44069;DHT22;29738;51.234;5.484;2022-08-24T19:20:53;25.70;99.90
44069;DHT22;29738;51.234;5.484;2022-08-24T19:23:32;25.90;99.90
44069;DHT22;29738;51.234;5.484;2022-08-24T19:25:58;26.00;99.90
44069;DHT22;29738;51.234;5.484;2022-08-24T19:28:26;25.90;99.90